createdAt,value
2016-11-19T00:00:15.147Z,931.73
2016-11-19T00:01:15.211Z,931.75
2016-11-19T00:02:15.271Z,931.7
2016-11-19T00:03:15.295Z,931.71
2016-11-19T00:04:15.454Z,931.68
2016-11-19T00:05:15.399Z,931.71
2016-11-19T00:06:15.436Z,931.72
2016-11-19T00:07:15.484Z,931.71
2016-11-19T00:08:15.567Z,931.74
2016-11-19T00:09:15.581Z,931.88
2016-11-19T00:10:15.634Z,931.75
2016-11-19T00:11:15.684Z,931.75
2016-11-19T00:12:15.734Z,931.77
2016-11-19T00:13:15.791Z,931.69
2016-11-19T00:14:15.860Z,931.7
2016-11-19T00:15:15.890Z,931.75
2016-11-19T00:16:15.940Z,931.76
2016-11-19T00:17:15.987Z,931.86
2016-11-19T00:18:16.024Z,931.82
2016-11-19T00:19:16.091Z,931.8
2016-11-19T00:20:16.131Z,931.85
2016-11-19T00:21:16.165Z,931.87
2016-11-19T00:22:16.212Z,931.88
2016-11-19T00:23:16.274Z,931.89
2016-11-19T00:24:16.326Z,931.92
2016-11-19T00:25:16.377Z,931.88
2016-11-19T00:26:16.411Z,931.9
2016-11-19T00:27:16.457Z,931.89
2016-11-19T00:28:16.522Z,931.85
2016-11-19T00:29:16.577Z,931.86
2016-11-19T00:30:16.717Z,931.89
2016-11-19T00:31:16.661Z,931.94
2016-11-19T00:32:16.703Z,931.92
2016-11-19T00:33:16.779Z,931.86
2016-11-19T00:34:16.816Z,931.81
2016-11-19T00:35:16.850Z,931.87
2016-11-19T00:36:16.904Z,931.88
2016-11-19T00:37:16.943Z,931.89
2016-11-19T00:38:17.004Z,931.87
2016-11-19T00:39:17.042Z,931.85
2016-11-19T00:40:17.121Z,931.83
2016-11-19T00:41:17.143Z,931.81
2016-11-19T00:42:17.187Z,931.77
2016-11-19T00:43:17.251Z,931.83
2016-11-19T00:44:17.288Z,931.88
2016-11-19T00:45:17.345Z,931.86
2016-11-19T00:46:17.381Z,931.83
2016-11-19T00:47:17.447Z,931.9
2016-11-19T00:48:17.496Z,931.88
2016-11-19T00:49:17.557Z,931.86
2016-11-19T00:50:17.575Z,931.86
2016-11-19T00:51:17.638Z,931.81
2016-11-19T00:52:17.676Z,931.82
2016-11-19T00:53:17.738Z,931.81
2016-11-19T00:54:17.792Z,931.79
2016-11-19T00:55:17.820Z,931.77
2016-11-19T00:56:17.896Z,931.79
2016-11-19T00:57:17.934Z,931.78
2016-11-19T00:58:17.976Z,931.79
2016-11-19T00:59:18.015Z,931.79
2016-11-19T01:00:18.072Z,931.83
2016-11-19T01:01:18.438Z,931.77
2016-11-19T01:02:18.174Z,931.81
2016-11-19T01:03:18.221Z,931.87
2016-11-19T01:04:18.257Z,931.88
2016-11-19T01:05:18.306Z,931.89
2016-11-19T01:06:18.382Z,931.85
2016-11-19T01:07:18.401Z,931.88
2016-11-19T01:08:18.462Z,931.83
2016-11-19T01:09:18.532Z,931.84
2016-11-19T01:10:18.548Z,931.78
2016-11-19T01:11:18.623Z,931.85
2016-11-19T01:12:18.648Z,931.81
2016-11-19T01:13:18.712Z,931.83
2016-11-19T01:14:18.779Z,931.82
2016-11-19T01:15:18.803Z,931.81
2016-11-19T01:16:18.841Z,931.78
2016-11-19T01:17:18.912Z,931.8
2016-11-19T01:18:18.946Z,931.79
2016-11-19T01:19:19.002Z,931.8
2016-11-19T01:20:19.058Z,931.82
2016-11-19T01:21:19.107Z,931.82
2016-11-19T01:22:19.148Z,931.81
2016-11-19T01:23:19.188Z,931.8
2016-11-19T01:24:19.230Z,931.8
2016-11-19T01:25:19.308Z,931.8
2016-11-19T01:26:19.325Z,931.76
2016-11-19T01:27:19.679Z,931.81
2016-11-19T01:28:19.427Z,931.81
2016-11-19T01:29:19.501Z,931.77
2016-11-19T01:30:19.538Z,931.79
2016-11-19T01:31:19.574Z,931.74
2016-11-19T01:32:19.948Z,931.73
2016-11-19T01:33:19.677Z,931.68
2016-11-19T01:34:19.729Z,931.72
2016-11-19T01:35:19.797Z,931.75
2016-11-19T01:36:19.841Z,931.71
2016-11-19T01:37:19.888Z,931.78
2016-11-19T01:38:19.912Z,931.73
2016-11-19T01:39:19.963Z,931.69
2016-11-19T01:40:20.016Z,931.74
2016-11-19T01:41:20.069Z,931.75
2016-11-19T01:42:20.122Z,931.69
2016-11-19T01:43:20.179Z,931.73
2016-11-19T01:44:20.200Z,931.67
2016-11-19T01:45:20.247Z,931.67
2016-11-19T01:46:20.310Z,931.66
2016-11-19T01:47:20.355Z,931.69
2016-11-19T01:48:20.398Z,931.66
2016-11-19T01:49:20.443Z,931.71
2016-11-19T01:50:20.497Z,931.77
2016-11-19T01:51:20.556Z,931.71
2016-11-19T01:52:20.622Z,931.66
2016-11-19T01:53:20.641Z,931.7
2016-11-19T01:54:20.699Z,931.72
2016-11-19T01:55:20.734Z,931.68
2016-11-19T01:56:20.780Z,931.65
2016-11-19T01:57:20.850Z,931.62
2016-11-19T01:58:21.201Z,931.65
2016-11-19T01:59:20.926Z,931.61
2016-11-19T02:00:20.974Z,931.61
2016-11-19T02:01:21.041Z,931.62
2016-11-19T02:02:21.073Z,931.56
2016-11-19T02:03:21.249Z,931.53
2016-11-19T02:04:21.171Z,931.6
2016-11-19T02:05:21.215Z,931.64
2016-11-19T02:06:21.296Z,931.61
2016-11-19T02:07:21.338Z,931.54
2016-11-19T02:08:21.371Z,931.51
2016-11-19T02:09:21.422Z,931.49
2016-11-19T02:10:21.485Z,931.51
2016-11-19T02:11:21.525Z,931.56
2016-11-19T02:12:21.564Z,931.55
2016-11-19T02:13:21.612Z,931.58
2016-11-19T02:14:21.671Z,931.56
2016-11-19T02:15:21.704Z,931.55
2016-11-19T02:16:21.768Z,931.52
2016-11-19T02:17:21.807Z,931.47
2016-11-19T02:18:21.841Z,931.49
2016-11-19T02:19:21.918Z,931.51
2016-11-19T02:20:21.960Z,931.4
2016-11-19T02:21:22.017Z,931.34
2016-11-19T02:22:22.072Z,931.37
2016-11-19T02:23:22.096Z,931.37
2016-11-19T02:24:22.138Z,931.36
2016-11-19T02:25:22.206Z,931.37
2016-11-19T02:26:22.250Z,931.37
2016-11-19T02:27:22.311Z,931.27
2016-11-19T02:28:22.361Z,931.31
2016-11-19T02:29:22.387Z,931.25
2016-11-19T02:30:22.428Z,931.24
2016-11-19T02:31:22.493Z,931.27
2016-11-19T02:32:22.535Z,931.26
2016-11-19T02:33:22.570Z,931.26
2016-11-19T02:34:22.722Z,931.32
2016-11-19T02:35:22.666Z,931.28
2016-11-19T02:36:22.749Z,931.28
2016-11-19T02:37:22.785Z,931.24
2016-11-19T02:38:22.820Z,931.19
2016-11-19T02:39:22.990Z,931.24
2016-11-19T02:40:22.924Z,931.21
2016-11-19T02:41:22.959Z,931.29
2016-11-19T02:42:23.037Z,931.25
2016-11-19T02:43:23.054Z,931.26
2016-11-19T02:44:23.137Z,931.26
2016-11-19T02:45:23.179Z,931.27
2016-11-19T02:46:23.223Z,931.23
2016-11-19T02:47:23.269Z,931.21
2016-11-19T02:48:23.323Z,931.23
2016-11-19T02:49:23.345Z,931.2
2016-11-19T02:50:23.410Z,931.24
2016-11-19T02:51:23.440Z,931.22
2016-11-19T02:52:23.526Z,931.18
2016-11-19T02:53:23.559Z,931.14
2016-11-19T02:54:23.616Z,931.11
2016-11-19T02:55:23.641Z,931.12
2016-11-19T02:56:23.690Z,931.07
2016-11-19T02:57:23.735Z,930.98
2016-11-19T02:58:23.785Z,931.04
2016-11-19T02:59:23.842Z,931.09
2016-11-19T03:00:23.880Z,931.07
2016-11-19T03:01:23.941Z,931.06
2016-11-19T03:02:23.987Z,931.06
2016-11-19T03:03:24.051Z,931.05
2016-11-19T03:04:24.073Z,931
2016-11-19T03:05:24.225Z,931.02
2016-11-19T03:06:24.181Z,931.02
2016-11-19T03:07:24.222Z,931.04
2016-11-19T03:08:24.282Z,930.98
2016-11-19T03:09:24.316Z,931
2016-11-19T03:10:24.359Z,931
2016-11-19T03:11:24.413Z,930.94
2016-11-19T03:12:24.465Z,930.96
2016-11-19T03:13:24.541Z,930.99
2016-11-19T03:14:24.568Z,931.01
2016-11-19T03:15:24.615Z,930.99
2016-11-19T03:16:24.685Z,931.16
2016-11-19T03:17:24.703Z,931.05
2016-11-19T03:18:24.756Z,931.04
2016-11-19T03:19:24.821Z,931.02
2016-11-19T03:20:24.876Z,930.98
2016-11-19T03:21:24.901Z,930.9
2016-11-19T03:22:24.955Z,930.88
2016-11-19T03:23:24.987Z,930.79
2016-11-19T03:24:25.055Z,930.78
2016-11-19T03:25:25.088Z,930.78
2016-11-19T03:26:25.162Z,930.77
2016-11-19T03:27:25.195Z,930.72
2016-11-19T03:28:25.241Z,930.69
2016-11-19T03:29:25.309Z,930.67
2016-11-19T03:30:25.339Z,930.67
2016-11-19T03:31:25.511Z,930.63
2016-11-19T03:32:25.433Z,930.65
2016-11-19T03:33:25.501Z,930.56
2016-11-19T03:34:25.532Z,930.56
2016-11-19T03:35:25.582Z,930.6
2016-11-19T03:36:25.620Z,930.66
2016-11-19T03:37:25.676Z,930.64
2016-11-19T03:38:25.727Z,930.64
2016-11-19T03:39:25.794Z,930.58
2016-11-19T03:40:25.850Z,930.56
2016-11-19T03:41:25.888Z,930.51
2016-11-19T03:42:25.941Z,930.48
2016-11-19T03:43:25.957Z,930.37
2016-11-19T03:44:26.005Z,930.46
2016-11-19T03:45:26.057Z,930.44
2016-11-19T03:46:26.104Z,930.41
2016-11-19T03:47:26.161Z,930.42
2016-11-19T03:48:26.231Z,930.51
2016-11-19T03:49:26.274Z,930.47
2016-11-19T03:50:26.295Z,930.43
2016-11-19T03:51:26.362Z,930.43
2016-11-19T03:52:26.399Z,930.41
2016-11-19T03:53:26.446Z,930.42
2016-11-19T03:54:26.488Z,930.44
2016-11-19T03:55:26.556Z,930.41
2016-11-19T03:56:26.599Z,930.41
2016-11-19T03:57:26.640Z,930.42
2016-11-19T03:58:26.686Z,930.37
2016-11-19T03:59:26.731Z,930.37
2016-11-19T04:00:26.807Z,930.37
2016-11-19T04:01:26.834Z,930.3
2016-11-19T04:02:26.987Z,930.25
2016-11-19T04:03:26.936Z,930.22
2016-11-19T04:04:26.992Z,930.17
2016-11-19T04:05:27.048Z,930.19
2016-11-19T04:06:27.090Z,930.21
2016-11-19T04:07:27.216Z,930.19
2016-11-19T04:08:27.193Z,930.17
2016-11-19T04:09:27.215Z,930.11
2016-11-19T04:10:27.275Z,930.12
2016-11-19T04:11:27.313Z,930.21
2016-11-19T04:12:27.376Z,930.22
2016-11-19T04:13:27.437Z,930.26
2016-11-19T04:14:27.462Z,930.3
2016-11-19T04:15:27.518Z,930.32
2016-11-19T04:16:27.582Z,930.23
2016-11-19T04:17:27.603Z,930.22
2016-11-19T04:18:27.677Z,930.17
2016-11-19T04:19:27.701Z,930.17
2016-11-19T04:20:27.767Z,930.14
2016-11-19T04:21:27.800Z,930.04
2016-11-19T04:22:27.869Z,930.08
2016-11-19T04:23:27.903Z,930.13
2016-11-19T04:24:27.945Z,930.07
2016-11-19T04:25:28.022Z,930.06
2016-11-19T04:26:28.063Z,930.04
2016-11-19T04:27:28.099Z,929.99
2016-11-19T04:28:28.156Z,930
2016-11-19T04:29:28.181Z,929.95
2016-11-19T04:30:28.235Z,929.98
2016-11-19T04:31:28.280Z,930.03
2016-11-19T04:32:28.349Z,930.01
2016-11-19T04:33:28.376Z,930.01
2016-11-19T04:34:28.428Z,930.05
2016-11-19T04:35:28.483Z,929.98
2016-11-19T04:36:28.543Z,929.96
2016-11-19T04:37:28.606Z,929.94
2016-11-19T04:38:28.627Z,929.85
2016-11-19T04:39:28.678Z,929.89
2016-11-19T04:40:28.728Z,929.86
2016-11-19T04:41:28.766Z,929.93
2016-11-19T04:42:28.840Z,929.91
2016-11-19T04:43:28.961Z,929.99
2016-11-19T04:44:28.916Z,929.99
2016-11-19T04:45:28.956Z,930.01
2016-11-19T04:46:29.009Z,929.99
2016-11-19T04:47:29.084Z,929.99
2016-11-19T04:48:29.117Z,929.92
2016-11-19T04:49:29.150Z,929.89
2016-11-19T04:50:29.211Z,929.85
2016-11-19T04:51:29.264Z,929.85
2016-11-19T04:52:29.318Z,929.82
2016-11-19T04:53:29.368Z,929.79
2016-11-19T04:54:29.406Z,929.79
2016-11-19T04:55:29.443Z,929.74
2016-11-19T04:56:29.490Z,929.75
2016-11-19T04:57:29.568Z,929.75
2016-11-19T04:58:29.609Z,929.79
2016-11-19T04:59:29.664Z,929.72
2016-11-19T05:00:29.679Z,929.7
2016-11-19T05:01:29.735Z,929.69
2016-11-19T05:02:29.774Z,929.64
2016-11-19T05:03:29.827Z,929.59
2016-11-19T05:04:29.898Z,929.57
2016-11-19T05:05:29.935Z,929.61
2016-11-19T05:06:29.975Z,929.56
2016-11-19T05:07:30.016Z,929.58
2016-11-19T05:08:30.068Z,929.63
2016-11-19T05:09:30.140Z,929.61
2016-11-19T05:10:30.191Z,929.6
2016-11-19T05:11:30.236Z,929.6
2016-11-19T05:12:30.268Z,929.54
2016-11-19T05:13:30.317Z,929.56
2016-11-19T05:14:30.459Z,929.46
2016-11-19T05:15:30.401Z,929.45
2016-11-19T05:16:30.449Z,929.42
2016-11-19T05:17:30.500Z,929.42
2016-11-19T05:18:30.573Z,929.5
2016-11-19T05:19:30.600Z,929.48
2016-11-19T05:20:30.640Z,929.47
2016-11-19T05:21:30.725Z,929.47
2016-11-19T05:22:30.749Z,929.43
2016-11-19T05:23:30.790Z,929.41
2016-11-19T05:24:30.834Z,929.46
2016-11-19T05:25:30.882Z,929.45
2016-11-19T05:26:30.936Z,929.52
2016-11-19T05:27:30.979Z,929.49
2016-11-19T05:28:31.024Z,929.52
2016-11-19T05:29:31.102Z,929.52
2016-11-19T05:30:31.125Z,929.5
2016-11-19T05:31:31.171Z,929.49
2016-11-19T05:32:31.219Z,929.46
2016-11-19T05:33:31.284Z,929.42
2016-11-19T05:34:31.334Z,929.45
2016-11-19T05:35:31.376Z,929.53
2016-11-19T05:36:31.412Z,929.59
2016-11-19T05:37:31.473Z,929.58
2016-11-19T05:38:31.536Z,929.65
2016-11-19T05:39:31.584Z,929.63
2016-11-19T05:40:31.630Z,929.63
2016-11-19T05:41:31.681Z,929.57
2016-11-19T05:42:31.699Z,929.5
2016-11-19T05:43:31.766Z,929.44
2016-11-19T05:44:31.818Z,929.56
2016-11-19T05:45:31.872Z,929.49
2016-11-19T05:46:31.924Z,929.54
2016-11-19T05:47:31.942Z,929.52
2016-11-19T05:48:31.995Z,929.53
2016-11-19T05:49:32.042Z,929.45
2016-11-19T05:50:32.114Z,929.46
2016-11-19T05:51:32.144Z,929.47
2016-11-19T05:52:32.211Z,929.52
2016-11-19T05:53:32.235Z,929.54
2016-11-19T05:54:32.313Z,929.57
2016-11-19T05:55:32.457Z,929.55
2016-11-19T05:56:32.398Z,929.61
2016-11-19T05:57:32.436Z,929.61
2016-11-19T05:58:32.478Z,929.62
2016-11-19T05:59:32.549Z,929.67
2016-11-19T06:00:32.672Z,929.7
2016-11-19T06:01:32.632Z,929.72
2016-11-19T06:02:32.689Z,929.74
2016-11-19T06:03:32.747Z,929.66
2016-11-19T06:04:32.764Z,929.7
2016-11-19T06:05:32.812Z,929.75
2016-11-19T06:06:32.857Z,929.69
2016-11-19T06:07:32.934Z,929.72
2016-11-19T06:08:32.968Z,929.78
2016-11-19T06:09:33.012Z,929.8
2016-11-19T06:10:33.066Z,929.77
2016-11-19T06:11:33.128Z,929.78
2016-11-19T06:12:33.146Z,929.82
2016-11-19T06:13:33.210Z,929.76
2016-11-19T06:14:33.253Z,929.69
2016-11-19T06:15:33.307Z,929.73
2016-11-19T06:16:33.356Z,929.68
2016-11-19T06:17:33.393Z,929.73
2016-11-19T06:18:33.439Z,929.77
2016-11-19T06:19:33.500Z,929.77
2016-11-19T06:20:33.557Z,929.76
2016-11-19T06:21:33.585Z,929.8
2016-11-19T06:22:33.629Z,929.86
2016-11-19T06:23:33.699Z,929.75
2016-11-19T06:24:33.751Z,929.74
2016-11-19T06:25:33.791Z,929.72
2016-11-19T06:26:33.919Z,929.78
2016-11-19T06:27:33.883Z,929.73
2016-11-19T06:28:33.915Z,929.73
2016-11-19T06:29:33.993Z,929.79
2016-11-19T06:30:34.035Z,929.82
2016-11-19T06:31:34.062Z,929.87
2016-11-19T06:32:34.138Z,929.88
2016-11-19T06:33:34.187Z,929.88
2016-11-19T06:34:34.239Z,929.86
2016-11-19T06:35:34.276Z,929.9
2016-11-19T06:36:34.301Z,929.86
2016-11-19T06:37:34.371Z,929.89
2016-11-19T06:38:34.397Z,929.82
2016-11-19T06:39:34.478Z,929.85
2016-11-19T06:40:34.493Z,929.86
2016-11-19T06:41:34.563Z,929.9
2016-11-19T06:42:34.617Z,929.92
2016-11-19T06:43:34.664Z,929.89
2016-11-19T06:44:34.712Z,929.91
2016-11-19T06:45:34.752Z,929.93
2016-11-19T06:46:34.784Z,929.96
2016-11-19T06:47:34.865Z,929.91
2016-11-19T06:48:34.891Z,929.93
2016-11-19T06:49:34.939Z,929.96
2016-11-19T06:50:34.992Z,929.92
2016-11-19T06:51:35.050Z,929.92
2016-11-19T06:52:35.080Z,929.9
2016-11-19T06:53:35.122Z,929.88
2016-11-19T06:54:35.178Z,929.87
2016-11-19T06:55:35.240Z,929.87
2016-11-19T06:56:35.293Z,929.86
2016-11-19T06:57:35.311Z,929.83
2016-11-19T06:58:35.387Z,929.81
2016-11-19T06:59:35.411Z,929.81
2016-11-19T07:00:35.454Z,929.79
2016-11-19T07:01:35.520Z,929.78
2016-11-19T07:02:35.681Z,929.77
2016-11-19T07:03:35.597Z,929.75
2016-11-19T07:04:35.649Z,929.78
2016-11-19T07:05:35.696Z,929.85
2016-11-19T07:06:35.747Z,929.84
2016-11-19T07:07:35.896Z,929.83
2016-11-19T07:08:35.857Z,929.85
2016-11-19T07:09:35.896Z,929.83
2016-11-19T07:10:35.936Z,929.84
2016-11-19T07:11:35.993Z,929.86
2016-11-19T07:12:36.033Z,929.91
2016-11-19T07:13:36.083Z,929.92
2016-11-19T07:14:36.130Z,929.91
2016-11-19T07:15:36.180Z,929.93
2016-11-19T07:16:36.234Z,929.92
2016-11-19T07:17:36.272Z,929.89
2016-11-19T07:18:36.321Z,929.82
2016-11-19T07:19:36.371Z,929.78
2016-11-19T07:20:36.434Z,929.8
2016-11-19T07:21:36.467Z,929.76
2016-11-19T07:22:36.521Z,929.73
2016-11-19T07:23:36.564Z,929.8
2016-11-19T07:24:36.624Z,929.76
2016-11-19T07:25:36.676Z,929.81
2016-11-19T07:26:36.723Z,929.8
2016-11-19T07:27:36.757Z,929.76
2016-11-19T07:28:36.822Z,929.74
2016-11-19T07:29:36.854Z,929.71
2016-11-19T07:30:36.902Z,929.63
2016-11-19T07:31:36.985Z,929.64
2016-11-19T07:32:36.996Z,929.64
2016-11-19T07:33:37.073Z,929.64
2016-11-19T07:34:37.097Z,929.7
2016-11-19T07:35:37.168Z,929.69
2016-11-19T07:36:37.191Z,929.73
2016-11-19T07:37:37.266Z,929.71
2016-11-19T07:38:37.300Z,929.79
2016-11-19T07:39:37.335Z,929.84
2016-11-19T07:40:37.401Z,929.88
2016-11-19T07:41:37.440Z,929.85
2016-11-19T07:42:37.482Z,929.9
2016-11-19T07:43:37.655Z,929.9
2016-11-19T07:44:37.595Z,929.97
2016-11-19T07:45:37.640Z,929.96
2016-11-19T07:46:37.699Z,930.01
2016-11-19T07:47:37.726Z,929.99
2016-11-19T07:48:37.774Z,930
2016-11-19T07:49:37.835Z,930.01
2016-11-19T07:50:37.893Z,929.9
2016-11-19T07:51:37.942Z,929.88
2016-11-19T07:52:37.972Z,929.88
2016-11-19T07:53:38.014Z,929.83
2016-11-19T07:54:38.078Z,929.84
2016-11-19T07:55:38.120Z,929.88
2016-11-19T07:56:38.162Z,929.91
2016-11-19T07:57:38.208Z,929.93
2016-11-19T07:58:38.264Z,929.98
2016-11-19T07:59:38.302Z,929.99
2016-11-19T08:00:38.363Z,929.94
2016-11-19T08:01:38.406Z,929.99
2016-11-19T08:02:38.448Z,929.95
2016-11-19T08:03:38.494Z,929.99
2016-11-19T08:04:38.539Z,929.95
2016-11-19T08:05:38.601Z,929.95
2016-11-19T08:06:38.641Z,929.97
2016-11-19T08:07:38.714Z,929.94
2016-11-19T08:08:38.762Z,929.95
2016-11-19T08:09:38.811Z,929.99
2016-11-19T08:10:38.831Z,929.96
2016-11-19T08:11:38.901Z,930.01
2016-11-19T08:12:38.930Z,929.92
2016-11-19T08:13:38.985Z,929.97
2016-11-19T08:14:39.153Z,930.01
2016-11-19T08:15:39.080Z,930.06
2016-11-19T08:16:39.130Z,930.03
2016-11-19T08:17:39.194Z,930.07
2016-11-19T08:18:39.221Z,930.05
2016-11-19T08:19:39.263Z,930.07
2016-11-19T08:20:39.345Z,930.1
2016-11-19T08:21:39.373Z,930.19
2016-11-19T08:22:39.438Z,930.23
2016-11-19T08:23:39.460Z,930.33
2016-11-19T08:24:39.525Z,930.3
2016-11-19T08:25:39.552Z,930.31
2016-11-19T08:26:39.617Z,930.29
2016-11-19T08:27:39.661Z,930.31
2016-11-19T08:28:39.729Z,930.31
2016-11-19T08:29:39.780Z,930.25
2016-11-19T08:30:39.795Z,930.25
2016-11-19T08:31:39.844Z,930.23
2016-11-19T08:32:39.919Z,930.21
2016-11-19T08:33:39.966Z,930.21
2016-11-19T08:34:39.988Z,930.3
2016-11-19T08:35:40.054Z,930.29
2016-11-19T08:36:40.097Z,930.27
2016-11-19T08:37:40.134Z,930.27
2016-11-19T08:38:40.179Z,930.3
2016-11-19T08:39:40.261Z,930.27
2016-11-19T08:40:40.301Z,930.28
2016-11-19T08:41:40.353Z,930.3
2016-11-19T08:42:40.388Z,930.26
2016-11-19T08:43:40.450Z,930.27
2016-11-19T08:44:40.469Z,930.25
2016-11-19T08:45:40.524Z,930.33
2016-11-19T08:46:40.563Z,930.32
2016-11-19T08:47:40.630Z,930.32
2016-11-19T08:48:40.701Z,930.34
2016-11-19T08:49:40.728Z,930.4
2016-11-19T08:50:40.785Z,930.37
2016-11-19T08:51:40.825Z,930.41
2016-11-19T08:52:40.864Z,930.43
2016-11-19T08:53:40.934Z,930.53
2016-11-19T08:54:40.961Z,930.45
2016-11-19T08:55:41.114Z,930.52
2016-11-19T08:56:41.062Z,930.5
2016-11-19T08:57:41.121Z,930.46
2016-11-19T08:58:41.151Z,930.48
2016-11-19T08:59:41.209Z,930.4
2016-11-19T09:00:41.362Z,930.39
2016-11-19T09:01:41.322Z,930.33
2016-11-19T09:02:41.372Z,930.32
2016-11-19T09:03:41.402Z,930.35
2016-11-19T09:04:41.451Z,930.4
2016-11-19T09:05:41.513Z,930.39
2016-11-19T09:06:41.545Z,930.4
2016-11-19T09:07:41.608Z,930.38
2016-11-19T09:08:41.669Z,930.38
2016-11-19T09:09:41.691Z,930.4
2016-11-19T09:10:41.772Z,930.48
2016-11-19T09:11:41.814Z,930.51
2016-11-19T09:12:41.841Z,930.51
2016-11-19T09:13:41.886Z,930.53
2016-11-19T09:14:41.945Z,930.58
2016-11-19T09:15:42.002Z,930.61
2016-11-19T09:16:42.064Z,930.56
2016-11-19T09:17:42.085Z,930.55
2016-11-19T09:18:42.138Z,930.58
2016-11-19T09:19:42.194Z,930.65
2016-11-19T09:20:42.268Z,930.73
2016-11-19T09:21:42.285Z,930.71
2016-11-19T09:22:42.334Z,930.72
2016-11-19T09:23:42.396Z,930.74
2016-11-19T09:24:42.432Z,930.77
2016-11-19T09:25:42.511Z,930.71
2016-11-19T09:26:42.536Z,930.77
2016-11-19T09:27:42.595Z,930.79
2016-11-19T09:28:42.661Z,930.84
2016-11-19T09:29:42.686Z,930.82
2016-11-19T09:30:42.744Z,930.86
2016-11-19T09:31:42.913Z,930.89
2016-11-19T09:32:42.854Z,930.83
2016-11-19T09:33:42.892Z,930.79
2016-11-19T09:34:42.959Z,930.85
2016-11-19T09:35:42.999Z,930.86
2016-11-19T09:36:43.071Z,930.87
2016-11-19T09:37:43.101Z,930.88
2016-11-19T09:38:43.138Z,930.91
2016-11-19T09:39:43.175Z,930.88
2016-11-19T09:40:43.226Z,930.88
2016-11-19T09:41:43.290Z,930.9
2016-11-19T09:42:43.323Z,930.88
2016-11-19T09:43:43.377Z,930.93
2016-11-19T09:44:43.430Z,930.95
2016-11-19T09:45:43.481Z,931.03
2016-11-19T09:46:43.542Z,930.97
2016-11-19T09:47:43.565Z,930.99
2016-11-19T09:48:43.614Z,931.03
2016-11-19T09:49:43.673Z,930.99
2016-11-19T09:50:43.716Z,931.03
2016-11-19T09:51:43.762Z,931.11
2016-11-19T09:52:43.810Z,931.1
2016-11-19T09:53:43.856Z,931.2
2016-11-19T09:54:43.931Z,931.28
2016-11-19T09:55:43.973Z,931.25
2016-11-19T09:56:44.005Z,931.3
2016-11-19T09:57:44.082Z,931.27
2016-11-19T09:58:44.094Z,931.31
2016-11-19T09:59:44.153Z,931.34
2016-11-19T10:00:44.194Z,931.36
2016-11-19T10:01:44.249Z,931.34
2016-11-19T10:02:44.308Z,931.32
2016-11-19T10:03:44.358Z,931.37
2016-11-19T10:04:44.417Z,931.43
2016-11-19T10:05:44.447Z,931.34
2016-11-19T10:06:44.484Z,931.37
2016-11-19T10:07:44.631Z,931.37
2016-11-19T10:08:44.586Z,931.36
2016-11-19T10:09:44.655Z,931.36
2016-11-19T10:10:44.713Z,931.39
2016-11-19T10:11:44.741Z,931.41
2016-11-19T10:12:44.790Z,931.43
2016-11-19T10:13:44.828Z,931.47
2016-11-19T10:14:44.905Z,931.49
2016-11-19T10:15:44.930Z,931.58
2016-11-19T10:16:44.972Z,931.59
2016-11-19T10:17:45.020Z,931.6
2016-11-19T10:18:45.090Z,931.61
2016-11-19T10:19:45.134Z,931.61
2016-11-19T10:20:45.176Z,931.61
2016-11-19T10:21:45.215Z,931.65
2016-11-19T10:22:45.268Z,931.68
2016-11-19T10:23:45.313Z,931.63
2016-11-19T10:24:45.372Z,931.61
2016-11-19T10:25:45.423Z,931.66
2016-11-19T10:26:45.480Z,931.61
2016-11-19T10:27:45.500Z,931.63
2016-11-19T10:28:45.565Z,931.63
2016-11-19T10:29:45.595Z,931.59
2016-11-19T10:30:45.649Z,931.64
2016-11-19T10:31:45.698Z,931.67
2016-11-19T10:32:45.771Z,931.65
2016-11-19T10:33:45.804Z,931.67
2016-11-19T10:34:45.851Z,931.75
2016-11-19T10:35:45.912Z,931.76
2016-11-19T10:36:45.947Z,931.8
2016-11-19T10:37:45.988Z,931.8
2016-11-19T10:38:46.034Z,931.89
2016-11-19T10:39:46.088Z,931.89
2016-11-19T10:40:46.138Z,931.84
2016-11-19T10:41:46.178Z,931.79
2016-11-19T10:42:46.230Z,931.78
2016-11-19T10:43:46.375Z,931.78
2016-11-19T10:44:46.323Z,931.73
2016-11-19T10:45:46.375Z,931.7
2016-11-19T10:46:46.434Z,931.65
2016-11-19T10:47:46.498Z,931.74
2016-11-19T10:48:46.651Z,931.73
2016-11-19T10:49:46.601Z,931.77
2016-11-19T10:50:46.643Z,931.79
2016-11-19T10:51:46.667Z,931.8
2016-11-19T10:52:46.716Z,931.83
2016-11-19T10:53:46.785Z,931.83
2016-11-19T10:54:46.807Z,931.78
2016-11-19T10:55:46.856Z,931.74
2016-11-19T10:56:46.936Z,931.72
2016-11-19T10:57:46.957Z,931.69
2016-11-19T10:58:47.004Z,931.67
2016-11-19T10:59:47.054Z,931.7
2016-11-19T11:00:47.105Z,931.71
2016-11-19T11:01:47.168Z,931.7
2016-11-19T11:02:47.200Z,931.71
2016-11-19T11:03:47.254Z,931.69
2016-11-19T11:04:47.313Z,931.78
2016-11-19T11:05:47.350Z,931.73
2016-11-19T11:06:47.394Z,931.76
2016-11-19T11:07:47.453Z,931.78
2016-11-19T11:08:47.499Z,931.73
2016-11-19T11:09:47.552Z,931.75
2016-11-19T11:10:47.607Z,931.77
2016-11-19T11:11:47.664Z,931.77
2016-11-19T11:12:47.688Z,931.8
2016-11-19T11:13:47.758Z,931.79
2016-11-19T11:14:47.799Z,931.79
2016-11-19T11:15:47.858Z,931.74
2016-11-19T11:16:47.897Z,931.81
2016-11-19T11:17:47.960Z,931.72
2016-11-19T11:18:47.991Z,931.77
2016-11-19T11:19:48.056Z,931.82
2016-11-19T11:20:48.098Z,931.79
2016-11-19T11:21:48.157Z,931.89
2016-11-19T11:22:48.207Z,931.84
2016-11-19T11:23:48.230Z,931.8
2016-11-19T11:24:48.388Z,931.86
2016-11-19T11:25:48.359Z,931.9
2016-11-19T11:26:48.391Z,931.96
2016-11-19T11:27:48.438Z,931.96
2016-11-19T11:28:48.526Z,931.97
2016-11-19T11:29:48.551Z,931.99
2016-11-19T11:30:48.571Z,932.01
2016-11-19T11:31:48.627Z,932.05
2016-11-19T11:32:48.692Z,932.02
2016-11-19T11:33:48.713Z,932.01
2016-11-19T11:34:48.778Z,931.98
2016-11-19T11:35:48.808Z,931.93
2016-11-19T11:36:48.864Z,931.94
2016-11-19T11:37:48.924Z,931.98
2016-11-19T11:38:48.960Z,932.02
2016-11-19T11:39:49.017Z,932.01
2016-11-19T11:40:49.069Z,931.99
2016-11-19T11:41:49.105Z,932.05
2016-11-19T11:42:49.186Z,932.08
2016-11-19T11:43:49.235Z,932.07
2016-11-19T11:44:49.251Z,932.04
2016-11-19T11:45:49.295Z,932.08
2016-11-19T11:46:49.365Z,932.06
2016-11-19T11:47:49.425Z,932.04
2016-11-19T11:48:49.466Z,932.04
2016-11-19T11:49:49.491Z,932.08
2016-11-19T11:50:49.539Z,932.11
2016-11-19T11:51:49.607Z,932.18
2016-11-19T11:52:49.651Z,932.16
2016-11-19T11:53:49.686Z,932.18
2016-11-19T11:54:49.737Z,932.16
2016-11-19T11:55:49.886Z,932.18
2016-11-19T11:56:49.834Z,932.17
2016-11-19T11:57:49.877Z,932.13
2016-11-19T11:58:49.944Z,932.18
2016-11-19T11:59:49.976Z,932.16
2016-11-19T12:00:50.055Z,932.15
2016-11-19T12:01:50.083Z,932.1
2016-11-19T12:02:50.127Z,932.13
2016-11-19T12:03:50.191Z,932.11
2016-11-19T12:04:50.219Z,932.12
2016-11-19T12:05:50.272Z,932.11
2016-11-19T12:06:50.326Z,932.11
2016-11-19T12:07:50.367Z,932.1
2016-11-19T12:08:50.437Z,932.08
2016-11-19T12:09:50.465Z,931.97
2016-11-19T12:10:50.522Z,931.95
2016-11-19T12:11:50.572Z,931.92
2016-11-19T12:12:50.618Z,931.94
2016-11-19T12:13:50.673Z,932.02
2016-11-19T12:14:50.731Z,932.02
2016-11-19T12:15:50.758Z,932.1
2016-11-19T12:16:50.834Z,932.09
2016-11-19T12:17:50.880Z,932.21
2016-11-19T12:18:50.936Z,932.19
2016-11-19T12:19:50.954Z,932.15
2016-11-19T12:20:51.018Z,932.13
2016-11-19T12:21:51.066Z,932.13
2016-11-19T12:22:51.125Z,932.2
2016-11-19T12:23:51.156Z,932.29
2016-11-19T12:24:51.232Z,932.21
2016-11-19T12:25:51.256Z,932.24
2016-11-19T12:26:51.406Z,932.15
2016-11-19T12:27:51.350Z,932.2
2016-11-19T12:28:51.426Z,932.33
2016-11-19T12:29:51.454Z,932.19
2016-11-19T12:30:51.536Z,932.07
2016-11-19T12:31:51.553Z,932.15